createdAt,value
2018-06-06T00:09:03.230Z,43.90
2018-06-06T00:29:39.426Z,35.30
2018-06-06T00:50:19.614Z,33.77
2018-06-06T01:10:47.819Z,38.47
2018-06-06T01:31:29.512Z,36.73
2018-06-06T01:52:09.424Z,32.77
2018-06-06T02:12:49.613Z,25.30
2018-06-06T02:33:30.110Z,31.23
2018-06-06T02:54:10.290Z,27.97
2018-06-06T03:14:52.634Z,21.70
2018-06-06T03:35:32.160Z,27.70
2018-06-06T03:56:09.936Z,26.00
2018-06-06T04:16:47.357Z,20.67
2018-06-06T04:37:29.944Z,24.23
2018-06-06T04:58:12.035Z,25.53
2018-06-06T05:18:58.369Z,33.63
2018-06-06T05:39:36.989Z,29.30
2018-06-06T06:00:16.896Z,26.40
2018-06-06T06:20:57.406Z,21.13
2018-06-06T06:41:37.581Z,21.60
2018-06-06T07:02:14.694Z,21.77
2018-06-06T07:22:57.035Z,18.50
2018-06-06T07:43:38.725Z,19.03
2018-06-06T08:04:14.657Z,16.20
2018-06-06T08:24:53.913Z,17.63
2018-06-06T08:45:11.670Z,19.13
2018-06-06T09:05:42.962Z,18.77
2018-06-06T09:26:08.085Z,13.87
2018-06-06T09:46:43.357Z,16.67
2018-06-06T10:07:25.697Z,17.47
2018-06-06T10:28:06.810Z,25.23
2018-06-06T10:48:54.054Z,25.80
2018-06-06T11:09:34.572Z,15.67
2018-06-06T11:30:02.763Z,14.40
2018-06-06T11:50:45.102Z,17.40
2018-06-06T12:11:23.456Z,18.80
2018-06-06T12:31:58.721Z,16.67
2018-06-06T12:52:32.762Z,18.03
2018-06-06T13:13:11.109Z,14.83
2018-06-06T13:33:50.565Z,15.60
2018-06-06T13:54:29.642Z,23.43
2018-06-06T14:15:09.097Z,14.83
2018-06-06T14:35:46.022Z,17.10
2018-06-06T14:56:18.225Z,12.63
2018-06-06T15:16:56.565Z,13.10
2018-06-06T15:37:37.984Z,15.50
2018-06-06T15:58:16.943Z,13.10
2018-06-06T16:18:43.304Z,16.20
2018-06-06T16:39:19.502Z,15.57
2018-06-06T16:59:55.387Z,16.97
2018-06-06T17:20:39.298Z,22.80
2018-06-06T17:41:15.458Z,15.47
2018-06-06T18:01:54.719Z,22.27
2018-06-06T18:22:27.841Z,17.20
2018-06-06T18:43:00.046Z,17.83
2018-06-06T19:03:33.171Z,18.50
2018-06-06T19:24:11.511Z,21.07
2018-06-06T19:44:53.998Z,19.40
2018-06-06T20:05:26.977Z,19.53
2018-06-06T20:26:11.158Z,18.40
2018-06-06T20:46:45.506Z,27.57
2018-06-06T21:07:28.457Z,20.13
2018-06-06T21:28:06.187Z,27.40
2018-06-06T21:48:47.297Z,24.60
2018-06-06T22:09:30.900Z,21.87
2018-06-06T22:30:12.062Z,25.67
2018-06-06T22:50:53.390Z,25.17
2018-06-06T23:11:32.351Z,21.97
2018-06-06T23:32:10.695Z,24.80
2018-06-06T23:52:51.190Z,20.50
